KBWI/BWI METAR and TAF weather

Enter ICAO airport designator
Station Type Date Time Source
KBWI METAR 2019/08/25 12:54 UTC NOAA

KBWI 251254Z 03008KT 10SM FEW042 BKN070 21/14 A3023 RMK AO2 SLP235 T02060144


Station Type Date Time Source
KBWI Decoded METAR 2019/08/25 12:54 UTC NOAA

Station name not available
Aug 25, 2019 - 08:54 AM EDT / 2019.08.25 1254 UTC
Wind: from the NNE (030 degrees) at 9 MPH (8 KT):0
Visibility: 10 mile(s):0
Sky conditions: mostly cloudy
Temperature: 69.1 F (20.6 C)
Dew Point: 57.9 F (14.4 C)
Relative Humidity: 67%
Pressure (altimeter): 30.23 in. Hg (1023 hPa)
ob: KBWI 251254Z 03008KT 10SM FEW042 BKN070 21/14 A3023 RMK AO2 SLP235 T02060144
cycle: 13

Station Type Date Time Source
KBWI TAF 2019/08/25 12:33 UTC NOAA

TAF KBWI 251131Z 2512/2618 04008KT P6SM SCT060
FM251500 07010G17KT P6SM SCT050
FM252300 08008KT P6SM FEW050 SCT250
FM260500 05005KT P6SM BKN200

Example: see airport list